Terminal Aerodrome Forecast
Issued by NWS

Current Version | Previous Version | Text Only | Print | Product List | Glossary On
Versions: 1 2 3 4 5 6 7 8 9 10 11 12 13 14 15 16 17 18 19 20 21
000
FTUS42 KMLB 191300 AAA
TAFFPR
TAF AMD
KFPR 191310Z 1913/2012 24003KT P6SM SCT015 BKN080
     FM191400 23011KT P6SM VCSH SCT025 BKN070
      TEMPO 1914/1918 BKN020
     FM200100 27008KT P6SM SCT035 BKN050=

USA.gov is the U.S. government's official web portal to all federal, state and local government web resources and services.